Time;durP1;ratioP1;P1;durP2;ratioP2;P2;SDS_P1;SDS_P2;PMS_P1;PMS_P2;Temp;Humidity;BMP_temperature;BMP_pressure;BME280_temperature;BME280_humidity;BME280_pressure;Samples;Min_cycle;Max_cycle;Signal;HPM_P1;HPM_P2
2022/10/22 00:07:30;;;;;;;1.67;1.00;;;18.60;57.80;;;;;;20699726;28;20038;-79
2022/10/22 00:17:31;;;;;;;0.73;0.68;;;18.70;57.90;;;;;;20698748;28;20030;-80
2022/10/22 00:27:32;;;;;;;1.00;0.68;;;18.60;57.90;;;;;;20708469;28;20069;-81
2022/10/22 00:37:34;;;;;;;0.95;0.80;;;18.60;57.90;;;;;;20687272;28;20049;-80
2022/10/22 00:47:40;;;;;;;1.17;0.75;;;18.60;58.00;;;;;;20694163;28;20141;-79
2022/10/22 00:57:41;;;;;;;1.13;0.80;;;18.60;58.10;;;;;;20684131;28;20476;-80
2022/10/22 01:07:47;;;;;;;1.10;0.80;;;18.60;58.20;;;;;;20645134;28;20042;-81
2022/10/22 01:17:54;;;;;;;1.55;0.90;;;18.50;58.10;;;;;;20709197;28;20030;-80
2022/10/22 01:28:10;;;;;;;1.25;0.75;;;18.50;58.20;;;;;;20711849;28;20034;-78
2022/10/22 01:38:17;;;;;;;1.53;0.93;;;18.50;58.20;;;;;;20691407;28;20052;-80
2022/10/22 01:49:20;;;;;;;0.95;0.50;;;18.50;58.30;;;;;;20640575;28;20042;-78
2022/10/22 01:59:39;;;;;;;0.82;0.57;;;18.50;58.30;;;;;;20870957;23;20070;-80
2022/10/22 02:09:39;;;;;;;1.10;0.60;;;18.50;58.40;;;;;;20608666;28;20038;-80
2022/10/22 02:20:00;;;;;;;0.80;0.80;;;18.50;58.40;;;;;;20624298;28;20045;-80
2022/10/22 02:30:05;;;;;;;0.90;0.80;;;18.50;58.50;;;;;;20612833;28;20416;-80
2022/10/22 02:40:09;;;;;;;0.65;0.57;;;18.50;58.50;;;;;;20607085;28;20085;-80
2022/10/22 02:50:10;;;;;;;1.17;0.45;;;18.40;58.50;;;;;;20622718;28;20034;-80
2022/10/22 03:00:13;;;;;;;0.90;0.68;;;18.50;58.70;;;;;;20617146;28;20046;-80
2022/10/22 03:10:18;;;;;;;1.17;0.90;;;18.40;58.70;;;;;;20592329;28;20385;-81
2022/10/22 03:20:18;;;;;;;0.55;0.45;;;18.40;58.70;;;;;;20629349;28;20121;-80
2022/10/22 03:30:19;;;;;;;1.83;0.60;;;18.40;58.70;;;;;;20612917;28;20125;-82
2022/10/22 03:40:20;;;;;;;0.90;0.60;;;18.40;58.80;;;;;;20635161;28;20030;-81
2022/10/22 03:50:20;;;;;;;1.03;0.80;;;18.30;58.70;;;;;;20635360;28;20302;-80
2022/10/22 04:00:22;;;;;;;1.27;0.57;;;18.30;58.80;;;;;;20598867;28;20302;-81
2022/10/22 04:10:26;;;;;;;0.43;0.43;;;18.30;58.80;;;;;;20610752;28;20301;-81
2022/10/22 04:20:27;;;;;;;0.98;0.50;;;18.30;58.80;;;;;;20613029;28;20121;-80
2022/10/22 04:30:27;;;;;;;0.50;0.30;;;18.30;58.80;;;;;;20620195;28;20492;-81
2022/10/22 04:40:28;;;;;;;0.40;0.40;;;18.30;58.90;;;;;;20641661;28;20469;-79
2022/10/22 04:50:30;;;;;;;0.43;0.43;;;18.30;58.90;;;;;;20631519;28;20370;-79
2022/10/22 05:00:30;;;;;;;0.73;0.47;;;18.30;58.90;;;;;;20612781;28;20038;-82
2022/10/22 05:10:31;;;;;;;0.30;0.30;;;18.30;58.90;;;;;;20615729;28;20494;-81
2022/10/22 05:20:32;;;;;;;0.82;0.60;;;18.20;58.90;;;;;;20614897;28;20042;-81
2022/10/22 05:30:37;;;;;;;0.93;0.70;;;18.30;59.00;;;;;;20622140;28;20042;-80
2022/10/22 05:40:37;;;;;;;1.23;0.50;;;18.20;59.00;;;;;;20601012;28;20034;-78
2022/10/22 05:50:38;;;;;;;0.75;0.50;;;18.20;59.00;;;;;;20600686;28;20038;-80
2022/10/22 06:00:40;;;;;;;1.20;0.82;;;18.20;59.00;;;;;;20601539;28;20042;-81
2022/10/22 06:10:43;;;;;;;0.88;0.52;;;18.20;59.00;;;;;;20590804;28;20146;-81
2022/10/22 06:20:44;;;;;;;0.75;0.38;;;18.20;59.10;;;;;;20615430;28;20038;-82
2022/10/22 06:30:45;;;;;;;0.70;0.32;;;18.20;59.70;;;;;;20632740;28;20052;-83
2022/10/22 06:40:46;;;;;;;7.00;0.80;;;18.20;59.10;;;;;;20601623;28;20022;-83
2022/10/22 06:50:51;;;;;;;3.87;0.60;;;18.20;59.00;;;;;;20606124;28;20034;-83
2022/10/22 07:01:13;;;;;;;0.95;0.75;;;18.10;59.00;;;;;;20638187;28;20042;-74
2022/10/22 07:11:27;;;;;;;1.20;0.50;;;18.20;59.10;;;;;;20655994;28;20050;-78
2022/10/22 07:21:28;;;;;;;1.55;0.80;;;18.20;59.20;;;;;;20594833;28;20035;-75
2022/10/22 07:31:30;;;;;;;0.65;0.45;;;18.10;59.20;;;;;;20655591;28;20497;-84
2022/10/22 07:41:31;;;;;;;0.57;0.50;;;18.10;59.30;;;;;;20629220;28;20037;-77
2022/10/22 07:51:32;;;;;;;0.75;0.50;;;18.10;59.30;;;;;;20590567;28;20050;-78
2022/10/22 08:01:33;;;;;;;0.85;0.57;;;18.10;59.40;;;;;;20613197;28;20437;-77
2022/10/22 08:11:33;;;;;;;1.95;0.52;;;18.10;59.50;;;;;;20611808;28;20128;-78
2022/10/22 08:21:34;;;;;;;1.20;0.57;;;18.10;59.50;;;;;;20597382;28;20034;-81
2022/10/22 08:31:34;;;;;;;0.70;0.30;;;18.00;59.40;;;;;;20614733;28;20038;-80
2022/10/22 08:41:59;;;;;;;2.03;0.70;;;18.10;60.10;;;;;;20624148;28;20298;-82
2022/10/22 08:52:00;;;;;;;7.18;0.75;;;18.10;59.50;;;;;;20597939;28;20058;-79
2022/10/22 09:02:01;;;;;;;4.77;0.90;;;18.10;59.40;;;;;;20613428;28;20030;-79
2022/10/22 09:12:05;;;;;;;3.17;0.60;;;18.30;59.40;;;;;;20593040;28;20325;-81
2022/10/22 09:22:33;;;;;;;1.85;0.57;;;18.30;59.50;;;;;;20621156;28;20042;-80
2022/10/22 09:32:34;;;;;;;2.25;0.52;;;18.40;59.40;;;;;;20596378;28;20133;-77
2022/10/22 09:42:35;;;;;;;2.08;0.57;;;18.40;59.10;;;;;;20612764;28;20121;-82
2022/10/22 09:52:37;;;;;;;1.63;0.63;;;18.50;58.90;;;;;;20627527;28;20448;-80
2022/10/22 10:02:39;;;;;;;1.40;0.80;;;18.60;58.60;;;;;;20588408;28;20114;-83
2022/10/22 10:12:44;;;;;;;2.22;0.80;;;18.80;58.30;;;;;;20633103;28;20026;-81
2022/10/22 10:23:14;;;;;;;1.05;0.65;;;18.90;58.00;;;;;;20599487;28;20036;-89
2022/10/22 10:33:18;;;;;;;2.03;0.50;;;19.00;57.70;;;;;;20591916;28;20051;-80
2022/10/22 10:43:45;;;;;;;1.20;1.10;;;19.20;57.30;;;;;;20597938;28;20053;-85
2022/10/22 10:54:05;;;;;;;;;;;19.40;56.90;;;;;;20614654;28;20433;-78
2022/10/22 11:04:15;;;;;;;1.80;0.70;;;19.50;56.40;;;;;;20623900;28;19932;-74
2022/10/22 11:14:31;;;;;;;1.45;0.60;;;19.70;56.10;;;;;;20559413;28;20050;-77
2022/10/22 11:24:34;;;;;;;0.90;0.65;;;19.90;55.80;;;;;;20584482;28;20046;-73
2022/10/22 11:34:40;;;;;;;0.55;0.45;;;20.00;55.20;;;;;;20560776;28;20579;-70
2022/10/22 11:44:48;;;;;;;2.58;0.65;;;20.30;54.70;;;;;;20579351;28;20485;-70
2022/10/22 11:54:52;;;;;;;0.98;0.60;;;20.40;54.10;;;;;;20581716;28;20035;-71
2022/10/22 12:04:54;;;;;;;0.65;0.50;;;20.60;53.80;;;;;;20592834;28;20034;-71
2022/10/22 12:14:55;;;;;;;2.20;0.82;;;20.70;53.60;;;;;;20594627;28;20038;-71
2022/10/22 12:25:02;;;;;;;2.05;0.57;;;20.80;53.40;;;;;;20569575;28;20042;-72
2022/10/22 12:35:14;;;;;;;0.77;0.60;;;21.00;53.40;;;;;;20563115;28;20465;-69
2022/10/22 12:45:15;;;;;;;1.25;0.80;;;21.10;53.20;;;;;;20588825;28;20043;-72
2022/10/22 12:55:27;;;;;;;2.05;0.60;;;21.10;53.10;;;;;;20585898;28;20056;-75
2022/10/22 13:05:32;;;;;;;1.48;0.60;;;21.20;53.10;;;;;;20611554;28;20100;-75
2022/10/22 13:15:36;;;;;;;1.10;0.43;;;21.20;53.00;;;;;;20576374;28;20034;-75
2022/10/22 13:25:38;;;;;;;1.17;0.60;;;21.20;52.90;;;;;;20596192;28;20117;-74
2022/10/22 13:35:39;;;;;;;0.82;0.52;;;21.30;52.90;;;;;;20596111;28;20113;-78
2022/10/22 13:45:40;;;;;;;1.95;0.50;;;21.30;53.00;;;;;;20618829;28;20042;-79
2022/10/22 13:55:40;;;;;;;2.35;0.80;;;21.30;52.90;;;;;;20621267;28;20041;-79
2022/10/22 14:05:41;;;;;;;0.93;0.65;;;21.40;52.90;;;;;;20602264;28;20527;-78
2022/10/22 14:15:43;;;;;;;2.17;0.80;;;21.30;53.50;;;;;;20610321;28;20085;-78
2022/10/22 14:25:45;;;;;;;2.63;0.73;;;21.40;52.80;;;;;;20625945;28;20689;-78
2022/10/22 14:35:49;;;;;;;0.93;0.68;;;21.40;52.80;;;;;;20578207;28;20481;-79
2022/10/22 14:45:50;;;;;;;1.65;0.60;;;21.40;52.80;;;;;;20595893;28;20039;-78
2022/10/22 14:55:54;;;;;;;0.90;0.43;;;21.40;52.80;;;;;;20599798;28;20043;-78
2022/10/22 15:05:55;;;;;;;2.75;0.52;;;21.30;52.80;;;;;;20611222;28;20491;-79
2022/10/22 15:15:56;;;;;;;0.50;0.50;;;21.30;52.90;;;;;;20579384;28;20125;-77
2022/10/22 15:25:57;;;;;;;0.60;0.50;;;21.30;53.20;;;;;;20605304;28;20086;-79
2022/10/22 15:36:09;;;;;;;2.25;0.82;;;21.20;53.20;;;;;;20612836;28;20026;-79
2022/10/22 15:46:16;;;;;;;0.95;0.40;;;21.20;53.30;;;;;;20618212;28;20441;-80
2022/10/22 15:56:16;;;;;;;1.75;0.70;;;21.30;53.40;;;;;;20611797;28;20046;-79
2022/10/22 16:06:18;;;;;;;0.90;0.50;;;21.20;53.30;;;;;;20608491;28;20402;-80
2022/10/22 16:16:18;;;;;;;1.05;0.57;;;21.20;53.50;;;;;;20610772;28;20078;-80
2022/10/22 16:26:19;;;;;;;1.48;0.57;;;21.10;53.50;;;;;;20614322;28;20034;-80
2022/10/22 16:36:23;;;;;;;1.15;0.55;;;21.10;53.60;;;;;;20632683;28;20641;-79
2022/10/22 16:46:23;;;;;;;0.45;0.45;;;21.00;53.60;;;;;;20639864;28;20042;-79
2022/10/22 16:56:25;;;;;;;0.93;0.40;;;21.00;53.60;;;;;;20619121;28;20041;-80
2022/10/22 17:06:26;;;;;;;1.95;0.70;;;20.90;53.70;;;;;;20628540;28;20069;-82
2022/10/22 17:16:28;;;;;;;1.43;0.80;;;20.90;53.70;;;;;;20614060;28;20030;-83
2022/10/22 17:26:32;;;;;;;1.05;0.47;;;20.90;53.80;;;;;;20615175;28;20049;-83
2022/10/22 17:36:34;;;;;;;1.00;0.70;;;20.80;53.80;;;;;;20610714;28;20409;-77
2022/10/22 17:46:37;;;;;;;1.67;0.60;;;20.80;53.90;;;;;;20615374;28;20051;-78
2022/10/22 17:56:41;;;;;;;1.83;0.80;;;20.80;54.00;;;;;;20599650;28;20360;-79
2022/10/22 18:06:42;;;;;;;1.00;0.65;;;20.70;54.00;;;;;;20600959;28;20125;-79
2022/10/22 18:16:42;;;;;;;0.80;0.60;;;20.80;54.20;;;;;;20593596;28;20125;-78
2022/10/22 18:26:43;;;;;;;1.20;0.60;;;20.70;54.80;;;;;;20591718;28;20308;-77
2022/10/22 18:36:44;;;;;;;1.80;0.70;;;20.70;54.20;;;;;;20591998;28;20047;-78
2022/10/22 18:46:44;;;;;;;0.57;0.47;;;20.70;54.30;;;;;;20607207;28;20297;-78
2022/10/22 18:56:45;;;;;;;1.85;0.60;;;20.60;54.30;;;;;;20610622;28;20093;-77
2022/10/22 19:06:47;;;;;;;1.50;0.80;;;20.60;54.40;;;;;;20612689;28;20043;-77
2022/10/22 19:16:48;;;;;;;2.37;0.70;;;20.60;54.50;;;;;;20612635;28;20882;-77
2022/10/22 19:26:50;;;;;;;2.08;1.05;;;20.60;54.60;;;;;;20596844;28;20321;-77
2022/10/22 19:36:51;;;;;;;1.67;1.25;;;20.50;54.60;;;;;;20624973;28;20086;-78
2022/10/22 19:46:51;;;;;;;1.08;0.70;;;20.50;54.70;;;;;;20598677;28;20039;-76
2022/10/22 19:56:52;;;;;;;2.05;0.93;;;20.50;54.80;;;;;;20621457;28;20035;-77
2022/10/22 20:06:56;;;;;;;1.48;1.00;;;20.50;54.90;;;;;;20637045;28;20043;-78
2022/10/22 20:17:02;;;;;;;1.02;0.80;;;20.40;54.90;;;;;;20620919;28;20045;-78
2022/10/22 20:27:03;;;;;;;1.63;0.90;;;20.40;55.10;;;;;;20608610;28;20457;-78
2022/10/22 20:37:04;;;;;;;1.23;0.70;;;20.40;55.10;;;;;;20616868;28;20046;-77
2022/10/22 20:47:05;;;;;;;0.95;0.80;;;20.40;55.20;;;;;;20619976;28;20034;-78
2022/10/22 20:57:06;;;;;;;2.15;1.02;;;20.40;55.30;;;;;;20606257;28;20375;-77
2022/10/22 21:07:07;;;;;;;1.90;1.10;;;20.40;55.40;;;;;;20625729;28;20038;-78
2022/10/22 21:17:08;;;;;;;1.27;0.90;;;20.40;55.50;;;;;;20617532;28;20113;-78
2022/10/22 21:27:09;;;;;;;0.85;0.77;;;20.30;55.50;;;;;;20613215;28;20069;-78
2022/10/22 21:37:09;;;;;;;1.20;0.90;;;20.30;55.60;;;;;;20606175;28;20359;-78
2022/10/22 21:47:13;;;;;;;1.38;0.85;;;20.30;55.60;;;;;;20584623;28;20039;-77
2022/10/22 21:57:13;;;;;;;1.38;0.80;;;20.30;55.70;;;;;;20614392;28;20487;-78
2022/10/22 22:07:16;;;;;;;1.50;0.95;;;20.30;55.80;;;;;;20604365;28;20050;-78
2022/10/22 22:17:18;;;;;;;1.83;0.90;;;20.30;56.00;;;;;;20607911;28;20118;-78
2022/10/22 22:27:20;;;;;;;1.02;0.70;;;20.20;55.90;;;;;;20618469;28;20038;-78
2022/10/22 22:37:26;;;;;;;0.93;0.70;;;20.10;55.90;;;;;;20623808;28;20038;-78
2022/10/22 22:47:28;;;;;;;3.05;0.88;;;20.20;56.00;;;;;;20608504;28;20053;-79
2022/10/22 22:57:30;;;;;;;1.45;0.73;;;20.10;56.10;;;;;;20582671;28;20048;-79
2022/10/22 23:07:32;;;;;;;0.90;0.55;;;20.10;56.10;;;;;;20596737;28;20165;-75
2022/10/22 23:17:32;;;;;;;1.27;0.88;;;20.10;56.90;;;;;;20630616;28;20081;-73
2022/10/22 23:27:33;;;;;;;1.03;0.70;;;20.10;56.30;;;;;;20611799;28;20477;-72
2022/10/22 23:37:34;;;;;;;1.05;0.55;;;20.00;56.30;;;;;;20625506;28;20776;-74
2022/10/22 23:47:35;;;;;;;1.17;0.88;;;20.00;56.40;;;;;;20635491;28;20109;-74
2022/10/22 23:57:35;;;;;;;3.13;1.17;;;20.00;56.50;;;;;;20614132;28;20037;-73
